Terminal Aerodrome Forecast
Issued by NWS Billings, MT

Home | Current Version | Previous Version | Text Only | Print | Product List | Glossary On
Versions: 1 2 3 4 5 6 7 8 9 10 11 12 13 14 15 16 17 18 19 20 21 22 23
000
FTUS45 KBYZ 041728
TAFBIL
TAF
KBIL 041728Z 0418/0518 24010KT P6SM VCTS BKN060CB OVC160
      TEMPO 0418/0420 VRB15G25KT 3SM +TSRA BKN050CB OVC140
     FM042200 25008KT P6SM VCSH BKN060
     FM050300 23007KT P6SM FEW070=

USA.gov is the U.S. government's official web portal to all federal, state and local government web resources and services.